Time;durP1;ratioP1;P1;durP2;ratioP2;P2;SDS_P1;SDS_P2;PMS_P1;PMS_P2;Temp;Humidity;BMP_temperature;BMP_pressure;BME280_temperature;BME280_humidity;BME280_pressure;Samples;Min_cycle;Max_cycle;Signal;HPM_P1;HPM_P2
2021/11/06 00:00:58;;;;;;;67.82;41.60;;;7.70;99.90;;;;;;5013404;28;20049;-74
2021/11/06 00:03:26;;;;;;;61.45;37.20;;;7.80;99.90;;;;;;5011592;28;20149;-74
2021/11/06 00:05:54;;;;;;;60.53;37.20;;;7.80;99.90;;;;;;5012554;28;20504;-74
2021/11/06 00:08:22;;;;;;;67.47;39.03;;;7.70;99.90;;;;;;5015089;28;20452;-74
2021/11/06 00:10:50;;;;;;;61.25;37.47;;;7.70;99.90;;;;;;4997346;28;20444;-75
2021/11/06 00:13:18;;;;;;;62.20;35.17;;;7.70;99.90;;;;;;5029220;28;20053;-75
2021/11/06 00:15:46;;;;;;;52.45;33.10;;;7.70;99.90;;;;;;5011517;28;20053;-73
2021/11/06 00:18:16;;;;;;;54.67;36.08;;;7.60;99.90;;;;;;5029528;28;20074;-73
2021/11/06 00:20:44;;;;;;;54.58;35.28;;;7.60;99.90;;;;;;5027802;28;20037;-74
2021/11/06 00:23:11;;;;;;;59.42;35.22;;;7.60;99.90;;;;;;5051109;28;20053;-74
2021/11/06 00:25:39;;;;;;;56.15;33.08;;;7.70;99.90;;;;;;5015539;28;20576;-73
2021/11/06 00:28:09;;;;;;;56.20;34.28;;;7.70;99.90;;;;;;5015904;28;20079;-74
2021/11/06 00:30:37;;;;;;;51.40;33.75;;;7.60;99.90;;;;;;5039228;28;20064;-74
2021/11/06 00:33:05;;;;;;;62.20;35.08;;;7.60;99.90;;;;;;5009786;28;20048;-73
2021/11/06 00:35:33;;;;;;;58.40;35.53;;;7.60;99.90;;;;;;5010273;28;20053;-73
2021/11/06 00:38:04;;;;;;;52.55;35.85;;;7.60;99.90;;;;;;4997678;28;20064;-73
2021/11/06 00:40:35;;;;;;;49.50;29.02;;;7.60;99.90;;;;;;5011961;28;20045;-74
2021/11/06 00:43:03;;;;;;;54.88;35.38;;;7.50;99.90;;;;;;5016019;28;20135;-74
2021/11/06 00:45:30;;;;;;;53.25;32.72;;;7.60;99.90;;;;;;4999187;28;20045;-74
2021/11/06 00:47:58;;;;;;;57.92;34.58;;;7.50;99.90;;;;;;4999318;28;20045;-74
2021/11/06 00:50:27;;;;;;;49.97;33.72;;;7.60;99.90;;;;;;5008281;28;20118;-74
2021/11/06 00:52:54;;;;;;;51.95;33.67;;;7.50;99.90;;;;;;5016158;28;20041;-74
2021/11/06 00:55:25;;;;;;;51.50;31.98;;;7.50;99.90;;;;;;5031346;28;20103;-74
2021/11/06 00:57:52;;;;;;;55.22;34.67;;;7.50;99.90;;;;;;5015647;28;20072;-74
2021/11/06 01:00:21;;;;;;;48.50;32.85;;;7.50;99.90;;;;;;5014912;28;20053;-74
2021/11/06 01:02:50;;;;;;;51.15;33.28;;;7.40;99.90;;;;;;4996351;28;20280;-74
2021/11/06 01:05:19;;;;;;;52.17;33.08;;;7.50;99.90;;;;;;4995842;28;20065;-74
2021/11/06 01:07:48;;;;;;;56.30;33.78;;;7.40;99.90;;;;;;4994842;28;20045;-74
2021/11/06 01:10:19;;;;;;;49.33;32.20;;;7.40;99.90;;;;;;5029455;28;20218;-74
2021/11/06 01:12:47;;;;;;;54.45;32.83;;;7.40;99.90;;;;;;5013625;28;20045;-74
2021/11/06 01:15:18;;;;;;;52.50;33.00;;;7.40;99.90;;;;;;5031014;28;20109;-74
2021/11/06 01:17:46;;;;;;;55.42;34.85;;;7.40;99.90;;;;;;4998615;28;20040;-76
2021/11/06 01:20:17;;;;;;;47.25;32.47;;;7.40;99.90;;;;;;4994517;28;20049;-75
2021/11/06 01:22:45;;;;;;;56.03;35.08;;;7.40;99.90;;;;;;5016997;28;20041;-74
2021/11/06 01:25:16;;;;;;;57.15;37.28;;;7.40;99.90;;;;;;4998232;28;20126;-74
2021/11/06 01:27:45;;;;;;;50.65;35.00;;;7.40;99.90;;;;;;5031533;28;20049;-73
2021/11/06 01:30:16;;;;;;;54.47;36.08;;;7.30;99.90;;;;;;5006817;28;20072;-75
2021/11/06 01:32:45;;;;;;;57.72;35.70;;;7.40;99.90;;;;;;5017554;28;20067;-74
2021/11/06 01:35:14;;;;;;;60.60;37.25;;;7.30;99.90;;;;;;4996552;28;20071;-74
2021/11/06 01:37:42;;;;;;;51.90;33.83;;;7.30;99.90;;;;;;5014816;28;20055;-75
2021/11/06 01:40:15;;;;;;;54.05;34.60;;;7.30;99.90;;;;;;5003628;28;20044;-74
2021/11/06 01:42:44;;;;;;;56.10;35.42;;;7.30;99.90;;;;;;5025690;28;20044;-75
2021/11/06 01:45:14;;;;;;;46.80;32.58;;;7.30;99.90;;;;;;5013223;28;20431;-74
2021/11/06 01:47:42;;;;;;;51.95;34.63;;;7.20;99.90;;;;;;5013563;28;20042;-74
2021/11/06 01:50:11;;;;;;;54.10;36.15;;;7.20;99.90;;;;;;5014279;28;20069;-74
2021/11/06 01:52:39;;;;;;;57.42;38.45;;;7.10;99.90;;;;;;5031669;28;20091;-75
2021/11/06 01:55:10;;;;;;;56.97;37.85;;;7.10;99.90;;;;;;5014816;28;20041;-75
2021/11/06 01:57:38;;;;;;;66.00;40.85;;;7.10;99.90;;;;;;5014135;28;20048;-75
2021/11/06 02:00:12;;;;;;;60.55;39.03;;;7.10;99.90;;;;;;4998238;28;20510;-74
2021/11/06 02:02:42;;;;;;;58.50;36.88;;;7.10;99.90;;;;;;5020982;28;20041;-74
2021/11/06 02:05:11;;;;;;;69.30;41.15;;;7.00;99.90;;;;;;4997518;28;20045;-74
2021/11/06 02:07:40;;;;;;;57.85;38.63;;;6.90;99.90;;;;;;4993538;28;20042;-74
2021/11/06 02:10:16;;;;;;;64.32;39.55;;;7.00;99.90;;;;;;5007046;28;20037;-74
2021/11/06 02:12:56;;;;;;;55.00;38.42;;;6.90;99.90;;;;;;5032037;28;20076;-75
2021/11/06 02:15:24;;;;;;;59.38;37.15;;;7.00;99.90;;;;;;4994921;28;20258;-74
2021/11/06 02:17:53;;;;;;;59.72;37.45;;;6.90;99.90;;;;;;4996649;28;20274;-74
2021/11/06 02:20:24;;;;;;;58.60;36.45;;;6.90;99.90;;;;;;5012880;28;20574;-74
2021/11/06 02:22:52;;;;;;;62.28;34.42;;;6.80;99.90;;;;;;4997093;28;20057;-74
2021/11/06 02:25:23;;;;;;;69.35;34.05;;;6.80;99.90;;;;;;5027521;28;20090;-76
2021/11/06 02:28:12;;;;;;;59.97;33.33;;;6.90;99.90;;;;;;4990513;28;20033;-75
2021/11/06 02:30:43;;;;;;;53.00;32.05;;;6.80;99.90;;;;;;5011604;28;20056;-75
2021/11/06 02:33:17;;;;;;;44.95;26.40;;;6.80;99.90;;;;;;4992638;28;20045;-74
2021/11/06 02:35:45;;;;;;;52.58;30.00;;;6.80;99.90;;;;;;5015996;28;20059;-74
2021/11/06 02:38:16;;;;;;;53.42;30.40;;;6.80;99.90;;;;;;4993713;28;20052;-74
2021/11/06 02:40:44;;;;;;;54.55;29.73;;;6.70;99.90;;;;;;5010813;28;20069;-73
2021/11/06 02:43:18;;;;;;;50.35;29.77;;;6.80;99.90;;;;;;5004325;28;20045;-75
2021/11/06 02:45:51;;;;;;;52.75;29.35;;;6.80;99.90;;;;;;5008882;28;20040;-74
2021/11/06 02:48:20;;;;;;;54.75;29.98;;;6.80;99.90;;;;;;5010900;28;20057;-75
2021/11/06 02:50:48;;;;;;;52.70;28.40;;;6.80;99.90;;;;;;4994630;28;20045;-74
2021/11/06 02:53:16;;;;;;;55.42;30.05;;;6.90;99.90;;;;;;4996710;28;20045;-74
2021/11/06 02:55:44;;;;;;;48.33;27.33;;;6.90;99.90;;;;;;5011472;28;20049;-74
2021/11/06 02:58:12;;;;;;;43.63;24.58;;;6.90;99.90;;;;;;4994922;28;20059;-75
2021/11/06 03:00:43;;;;;;;50.35;28.05;;;6.80;99.90;;;;;;4988365;28;20512;-73
2021/11/06 03:03:20;;;;;;;50.08;25.55;;;6.80;99.90;;;;;;5015761;28;20431;-74
2021/11/06 03:05:48;;;;;;;44.92;25.52;;;6.80;99.90;;;;;;5009604;28;20191;-73
2021/11/06 03:08:18;;;;;;;44.88;24.13;;;6.80;99.90;;;;;;5000772;28;20044;-75
2021/11/06 03:10:50;;;;;;;44.67;25.02;;;6.80;99.90;;;;;;5009866;28;20061;-75
2021/11/06 03:13:18;;;;;;;46.40;25.98;;;6.80;99.90;;;;;;4995576;28;20428;-75
2021/11/06 03:15:46;;;;;;;44.67;23.20;;;6.80;99.90;;;;;;5012250;28;20654;-74
2021/11/06 03:18:14;;;;;;;40.60;21.02;;;6.80;99.90;;;;;;4981349;28;20091;-75
2021/11/06 03:20:44;;;;;;;42.97;21.60;;;6.80;99.90;;;;;;5006418;28;20073;-75
2021/11/06 03:23:12;;;;;;;42.00;20.85;;;6.80;99.90;;;;;;4991639;28;20734;-75
2021/11/06 03:25:39;;;;;;;43.03;20.52;;;6.70;99.90;;;;;;5026123;28;20044;-74
2021/11/06 03:28:07;;;;;;;47.15;19.83;;;6.80;99.90;;;;;;4995586;28;20048;-75
2021/11/06 03:30:36;;;;;;;38.28;21.00;;;6.80;99.90;;;;;;5032064;28;20127;-74
2021/11/06 03:33:03;;;;;;;36.42;19.88;;;6.80;99.90;;;;;;4998153;28;20049;-74
2021/11/06 03:35:31;;;;;;;37.05;19.38;;;6.80;99.90;;;;;;5022295;28;20201;-73
2021/11/06 03:38:26;;;;;;;40.00;18.08;;;6.80;99.90;;;;;;5013018;28;20049;-75
2021/11/06 03:40:54;;;;;;;37.63;18.17;;;6.80;99.90;;;;;;5003354;28;20114;-75
2021/11/06 03:43:24;;;;;;;33.80;16.38;;;6.80;99.90;;;;;;5011375;28;20665;-75
2021/11/06 03:45:52;;;;;;;33.25;17.05;;;6.80;99.90;;;;;;4998878;28;20130;-75
2021/11/06 03:48:20;;;;;;;34.33;18.88;;;6.80;99.90;;;;;;5016332;28;20053;-74
2021/11/06 03:50:47;;;;;;;37.63;16.73;;;6.80;99.90;;;;;;5027659;28;20088;-75
2021/11/06 03:53:15;;;;;;;34.45;17.80;;;6.80;99.90;;;;;;4994172;28;20463;-74
2021/11/06 03:55:46;;;;;;;32.00;16.88;;;6.80;99.90;;;;;;5034191;28;20037;-75
2021/11/06 03:58:14;;;;;;;33.03;17.13;;;6.80;99.90;;;;;;5030046;28;20041;-74
2021/11/06 04:00:48;;;;;;;33.40;17.23;;;6.80;99.90;;;;;;4997964;28;20037;-73
2021/11/06 04:03:16;;;;;;;31.38;16.05;;;6.80;99.90;;;;;;4992254;28;20115;-74
2021/11/06 04:05:43;;;;;;;31.33;16.17;;;6.80;99.90;;;;;;5007876;28;20123;-74
2021/11/06 04:08:11;;;;;;;30.20;16.75;;;6.80;99.90;;;;;;4994228;28;20115;-74
2021/11/06 04:10:39;;;;;;;34.47;15.75;;;6.80;99.90;;;;;;5002565;28;20657;-74
2021/11/06 04:13:06;;;;;;;30.38;14.63;;;6.80;99.90;;;;;;5011332;28;20041;-75
2021/11/06 04:15:34;;;;;;;30.75;15.85;;;6.80;99.90;;;;;;5010977;28;20468;-74
2021/11/06 04:18:02;;;;;;;28.05;14.52;;;6.80;99.90;;;;;;4995920;28;20124;-74
2021/11/06 04:20:30;;;;;;;27.85;14.07;;;6.80;99.90;;;;;;4994910;28;20045;-75
2021/11/06 04:22:59;;;;;;;29.30;14.25;;;6.80;99.90;;;;;;5009014;28;20375;-74
2021/11/06 04:25:30;;;;;;;32.75;15.45;;;6.70;99.90;;;;;;4995496;28;20274;-73
2021/11/06 04:28:06;;;;;;;26.27;13.52;;;6.70;99.90;;;;;;5001490;28;20068;-73
2021/11/06 04:30:35;;;;;;;27.13;14.30;;;6.80;99.90;;;;;;5014015;28;20498;-74
2021/11/06 04:33:12;;;;;;;32.67;14.98;;;6.80;99.90;;;;;;4999783;28;20474;-75
2021/11/06 04:35:40;;;;;;;29.52;14.88;;;6.80;99.90;;;;;;5032503;28;20033;-75
2021/11/06 04:38:08;;;;;;;28.77;14.23;;;6.80;99.90;;;;;;5031692;28;20052;-76
2021/11/06 04:40:36;;;;;;;29.70;16.33;;;6.80;99.90;;;;;;5028937;28;20156;-75
2021/11/06 04:43:04;;;;;;;29.30;14.75;;;6.80;99.90;;;;;;5015771;28;20126;-74
2021/11/06 04:45:32;;;;;;;29.65;15.07;;;6.90;99.90;;;;;;5014847;28;20037;-75
2021/11/06 04:47:59;;;;;;;27.20;14.75;;;6.80;99.90;;;;;;4998602;28;20053;-75
2021/11/06 04:50:27;;;;;;;28.85;14.20;;;6.70;99.90;;;;;;4999076;28;20517;-74
2021/11/06 04:52:54;;;;;;;27.98;15.35;;;6.70;99.90;;;;;;4996816;28;20049;-75
2021/11/06 04:55:22;;;;;;;35.28;16.35;;;6.90;99.90;;;;;;5006617;28;20518;-75
2021/11/06 04:57:50;;;;;;;30.35;15.75;;;6.90;99.90;;;;;;5021023;28;20041;-75
2021/11/06 05:00:18;;;;;;;30.63;16.60;;;6.80;99.90;;;;;;5013300;28;20559;-75
2021/11/06 05:02:46;;;;;;;27.85;15.70;;;6.80;99.90;;;;;;4997949;28;20041;-75
2021/11/06 05:05:14;;;;;;;30.20;15.27;;;6.80;99.90;;;;;;4997801;28;20567;-74
2021/11/06 05:07:43;;;;;;;27.17;15.85;;;6.70;99.90;;;;;;4998538;28;20049;-74
2021/11/06 05:10:10;;;;;;;30.05;15.27;;;6.80;99.90;;;;;;4987769;28;20049;-75
2021/11/06 05:12:39;;;;;;;28.65;15.93;;;6.80;99.90;;;;;;5030060;28;20273;-74
2021/11/06 05:15:12;;;;;;;32.60;16.27;;;6.70;99.90;;;;;;5013763;28;20103;-74
2021/11/06 05:17:40;;;;;;;26.40;16.80;;;6.70;99.90;;;;;;5031113;28;20148;-74
2021/11/06 05:20:09;;;;;;;29.20;17.58;;;6.70;99.90;;;;;;5031147;28;20463;-75
2021/11/06 05:22:37;;;;;;;26.73;16.75;;;6.70;99.90;;;;;;5012206;28;20056;-75
2021/11/06 05:25:22;;;;;;;26.08;17.17;;;6.70;99.90;;;;;;5018325;28;20048;-74
2021/11/06 05:27:50;;;;;;;28.50;16.50;;;6.70;99.90;;;;;;4994154;28;20061;-76
2021/11/06 05:30:18;;;;;;;29.58;17.70;;;6.70;99.90;;;;;;5005758;28;20282;-74
2021/11/06 05:32:46;;;;;;;29.95;17.20;;;6.70;99.90;;;;;;5018520;28;20155;-75
2021/11/06 05:35:15;;;;;;;31.98;17.15;;;6.70;99.90;;;;;;5012978;28;20333;-76
2021/11/06 05:37:43;;;;;;;29.65;18.25;;;6.60;99.90;;;;;;4997226;28;20287;-75
2021/11/06 05:40:11;;;;;;;27.50;16.77;;;6.70;99.90;;;;;;4998767;28;20043;-75
2021/11/06 05:45:58;;;;;;;29.98;16.60;;;6.70;99.90;;;;;;5041614;28;20484;-75
2021/11/06 05:48:26;;;;;;;28.13;16.50;;;6.70;99.90;;;;;;4994445;28;20073;-74
2021/11/06 05:50:54;;;;;;;25.85;15.68;;;6.70;99.90;;;;;;4996486;28;20041;-76
2021/11/06 05:53:22;;;;;;;22.05;13.60;;;6.70;99.90;;;;;;4995106;28;20045;-75
2021/11/06 05:55:49;;;;;;;25.05;14.45;;;6.70;99.90;;;;;;4989638;28;20511;-74
2021/11/06 05:58:18;;;;;;;27.63;14.15;;;6.70;99.90;;;;;;4985441;28;20029;-77
2021/11/06 06:00:45;;;;;;;23.30;14.82;;;6.60;99.90;;;;;;4997646;28;20045;-76
2021/11/06 06:03:20;;;;;;;;;;;6.60;99.90;;;;;;5029664;28;20238;-76
2021/11/06 06:05:47;;;;;;;24.05;12.82;;;6.70;99.90;;;;;;5012431;28;20398;-75
2021/11/06 06:08:16;;;;;;;21.15;12.55;;;6.70;99.90;;;;;;4997298;28;20139;-75
2021/11/06 06:10:44;;;;;;;25.55;14.43;;;6.70;99.90;;;;;;5003465;28;20049;-74
2021/11/06 06:13:12;;;;;;;22.65;12.90;;;6.70;99.90;;;;;;4997444;28;20089;-74
2021/11/06 06:15:39;;;;;;;23.45;13.00;;;6.70;99.90;;;;;;4997382;28;20041;-74
2021/11/06 06:18:14;;;;;;;25.80;14.15;;;6.70;99.90;;;;;;4998026;28;20138;-75
2021/11/06 06:20:42;;;;;;;27.50;15.80;;;6.70;99.90;;;;;;5011863;28;20048;-74
2021/11/06 06:23:10;;;;;;;26.80;14.02;;;6.70;99.90;;;;;;4995064;28;20048;-75
2021/11/06 06:25:47;;;;;;;25.17;14.00;;;6.60;99.90;;;;;;5000242;28;20044;-76
2021/11/06 06:28:15;;;;;;;26.50;15.80;;;6.60;99.90;;;;;;4996885;28;20049;-75
2021/11/06 06:30:43;;;;;;;25.08;15.07;;;6.60;99.90;;;;;;5003860;28;20140;-75
2021/11/06 06:33:12;;;;;;;26.60;14.35;;;6.60;99.90;;;;;;5013344;28;20314;-74
2021/11/06 06:35:39;;;;;;;27.35;15.32;;;6.50;99.90;;;;;;5010869;28;20036;-76
2021/11/06 06:38:16;;;;;;;26.52;15.05;;;6.50;99.90;;;;;;4996183;28;20462;-74
2021/11/06 06:40:45;;;;;;;23.83;15.82;;;6.50;99.90;;;;;;4996545;28;20033;-75
2021/11/06 06:43:12;;;;;;;29.55;17.55;;;6.50;99.90;;;;;;5011143;28;20049;-74
2021/11/06 06:45:43;;;;;;;26.35;15.73;;;6.60;99.90;;;;;;5009985;28;20041;-74
2021/11/06 06:48:14;;;;;;;28.80;18.33;;;6.60;99.90;;;;;;5014615;28;20143;-74
2021/11/06 06:50:46;;;;;;;28.02;17.15;;;6.60;99.90;;;;;;4993339;28;20288;-75
2021/11/06 06:53:28;;;;;;;33.45;17.13;;;6.60;99.90;;;;;;5012932;28;20056;-76
2021/11/06 06:55:59;;;;;;;29.48;15.82;;;6.60;99.90;;;;;;5011587;28;20053;-75
2021/11/06 06:58:27;;;;;;;28.25;15.93;;;6.60;99.90;;;;;;4997067;28;20064;-75
2021/11/06 07:00:54;;;;;;;26.17;14.77;;;6.50;99.90;;;;;;5007132;28;20069;-75
2021/11/06 07:03:22;;;;;;;27.38;17.13;;;6.60;99.90;;;;;;4992480;28;20071;-75
2021/11/06 07:05:51;;;;;;;28.33;16.05;;;6.50;99.90;;;;;;5004907;28;20063;-75
2021/11/06 07:08:20;;;;;;;24.75;16.02;;;6.60;99.90;;;;;;4994412;28;20046;-75
2021/11/06 07:10:49;;;;;;;28.20;15.90;;;6.60;99.90;;;;;;5011169;28;20924;-75
2021/11/06 07:13:21;;;;;;;29.00;16.50;;;6.60;99.90;;;;;;5012881;28;20064;-75
2021/11/06 07:16:10;;;;;;;26.75;14.65;;;6.60;99.90;;;;;;5009729;28;20040;-75
2021/11/06 07:18:44;;;;;;;25.58;15.77;;;6.50;99.90;;;;;;4997131;28;20069;-75
2021/11/06 07:21:14;;;;;;;32.38;16.60;;;6.50;99.90;;;;;;5011910;28;20056;-74
2021/11/06 07:23:41;;;;;;;26.83;15.43;;;6.60;99.90;;;;;;4996922;28;20410;-75
2021/11/06 07:26:15;;;;;;;22.55;15.13;;;6.60;99.90;;;;;;4994000;28;20049;-75
2021/11/06 07:28:43;;;;;;;19.55;13.18;;;6.70;99.90;;;;;;4997606;28;20230;-74
2021/11/06 07:31:10;;;;;;;27.52;13.00;;;6.70;99.90;;;;;;4994861;28;20094;-73
2021/11/06 07:33:38;;;;;;;20.73;13.07;;;6.80;99.90;;;;;;5012746;28;20526;-76
2021/11/06 07:36:06;;;;;;;21.55;14.02;;;6.70;99.90;;;;;;4995508;28;20045;-77
2021/11/06 07:38:35;;;;;;;22.35;12.90;;;6.80;99.90;;;;;;5009569;28;20557;-75
2021/11/06 07:41:03;;;;;;;17.58;12.27;;;6.80;99.90;;;;;;5032849;28;20048;-75
2021/11/06 07:43:33;;;;;;;19.33;12.50;;;6.90;99.90;;;;;;5012965;28;20037;-74
2021/11/06 07:46:01;;;;;;;24.92;11.43;;;6.90;99.90;;;;;;5011730;28;20320;-74
2021/11/06 07:48:32;;;;;;;19.10;12.05;;;6.90;99.90;;;;;;4996082;28;20180;-75
2021/11/06 07:51:03;;;;;;;18.40;10.93;;;6.90;99.90;;;;;;5022553;28;20769;-74
2021/11/06 07:53:34;;;;;;;19.48;12.18;;;6.90;99.90;;;;;;5013442;28;20527;-75
2021/11/06 07:56:03;;;;;;;15.57;11.10;;;6.90;99.90;;;;;;5008544;28;20045;-75
2021/11/06 07:58:33;;;;;;;21.23;11.95;;;7.00;99.90;;;;;;4993905;28;20049;-75
2021/11/06 08:01:03;;;;;;;23.73;13.90;;;7.10;99.90;;;;;;4994839;28;20129;-75
2021/11/06 08:03:31;;;;;;;15.75;11.23;;;7.10;99.90;;;;;;4998389;28;20503;-74
2021/11/06 08:06:09;;;;;;;15.63;11.02;;;7.10;99.90;;;;;;4997150;28;20534;-75
2021/11/06 08:09:21;;;;;;;21.02;12.73;;;7.10;99.90;;;;;;5034048;28;20056;-75
2021/11/06 08:11:49;;;;;;;18.25;11.63;;;7.10;99.90;;;;;;5006328;28;20450;-76
2021/11/06 08:14:18;;;;;;;17.63;10.20;;;7.10;99.90;;;;;;4999681;28;20445;-75
2021/11/06 08:16:51;;;;;;;15.50;10.15;;;7.20;99.90;;;;;;5031247;28;20072;-76
2021/11/06 08:19:21;;;;;;;15.23;10.43;;;7.20;99.90;;;;;;5000471;28;20542;-74
2021/11/06 08:21:48;;;;;;;12.35;9.52;;;7.20;99.90;;;;;;4998741;28;20041;-75
2021/11/06 08:24:24;;;;;;;14.93;9.55;;;7.20;99.90;;;;;;4999871;28;20123;-76
2021/11/06 08:26:52;;;;;;;14.05;9.98;;;7.30;99.90;;;;;;4997735;28;20151;-75
2021/11/06 08:29:20;;;;;;;13.90;9.93;;;7.30;99.90;;;;;;5015148;28;20115;-77
2021/11/06 08:31:58;;;;;;;21.00;10.02;;;7.30;99.90;;;;;;5014014;28;20625;-75
2021/11/06 08:34:35;;;;;;;13.50;8.63;;;7.30;99.90;;;;;;5029178;28;20052;-78
2021/11/06 08:37:03;;;;;;;13.05;9.13;;;7.30;99.90;;;;;;5014913;28;20049;-77
2021/11/06 08:39:36;;;;;;;10.20;8.65;;;7.30;99.90;;;;;;5004739;28;20037;-77
2021/11/06 08:42:05;;;;;;;12.77;9.15;;;7.30;99.90;;;;;;5015397;28;20396;-78
2021/11/06 08:44:33;;;;;;;10.52;7.72;;;7.30;99.90;;;;;;5000130;28;20053;-74
2021/11/06 08:47:01;;;;;;;12.18;8.60;;;7.20;99.90;;;;;;5016266;28;20049;-74
2021/11/06 08:49:29;;;;;;;11.52;7.65;;;7.20;99.90;;;;;;5001493;28;20368;-76
2021/11/06 08:51:58;;;;;;;19.42;9.63;;;7.20;99.90;;;;;;5032052;28;20052;-78
2021/11/06 08:54:26;;;;;;;16.70;9.50;;;7.20;99.90;;;;;;5017042;28;20041;-75
2021/11/06 08:56:55;;;;;;;14.82;8.70;;;7.30;99.90;;;;;;5031587;28;20041;-75
2021/11/06 08:59:23;;;;;;;16.08;8.15;;;7.30;99.90;;;;;;5005628;28;20039;-76
2021/11/06 09:02:00;;;;;;;16.55;8.73;;;7.40;99.90;;;;;;5006542;28;20048;-75
2021/11/06 09:04:31;;;;;;;12.32;8.73;;;7.50;99.90;;;;;;5016812;28;20044;-74
2021/11/06 09:07:08;;;;;;;13.55;9.35;;;7.60;99.90;;;;;;4999995;28;20134;-75
2021/11/06 09:09:36;;;;;;;18.02;10.35;;;7.60;99.90;;;;;;5017965;28;20052;-76
2021/11/06 09:12:04;;;;;;;12.13;7.50;;;7.70;99.90;;;;;;5016208;28;20055;-74
2021/11/06 09:14:33;;;;;;;12.63;9.00;;;7.70;99.90;;;;;;5005291;28;20513;-77
2021/11/06 09:17:01;;;;;;;12.93;9.27;;;7.70;99.90;;;;;;5005507;28;20041;-76
2021/11/06 09:19:29;;;;;;;14.45;8.48;;;7.70;99.90;;;;;;5018987;28;20153;-75
2021/11/06 09:22:04;;;;;;;12.85;7.93;;;7.70;99.90;;;;;;5018365;28;20073;-75
2021/11/06 09:24:33;;;;;;;15.82;8.48;;;7.70;99.90;;;;;;5003201;28;20049;-76
2021/11/06 09:27:09;;;;;;;12.38;8.02;;;7.70;99.90;;;;;;5021358;28;20045;-76
2021/11/06 09:29:37;;;;;;;13.52;8.85;;;7.70;99.90;;;;;;5021601;28;20049;-75
2021/11/06 09:32:07;;;;;;;12.95;8.60;;;7.70;99.90;;;;;;5021493;28;20279;-77
2021/11/06 09:34:35;;;;;;;12.50;8.10;;;7.70;99.90;;;;;;5020983;28;20053;-76
2021/11/06 09:37:06;;;;;;;9.80;7.55;;;7.70;99.90;;;;;;5034413;28;20422;-78
2021/11/06 09:39:37;;;;;;;11.27;7.82;;;7.80;99.90;;;;;;5020342;28;20037;-74
2021/11/06 09:42:08;;;;;;;12.35;7.80;;;7.80;99.90;;;;;;5037767;28;20052;-76
2021/11/06 09:44:37;;;;;;;9.35;7.78;;;7.80;99.90;;;;;;5020873;28;20113;-76
2021/11/06 09:47:09;;;;;;;10.10;7.63;;;7.90;99.90;;;;;;5035999;28;20044;-76
2021/11/06 09:49:37;;;;;;;12.73;8.63;;;7.90;99.90;;;;;;5022874;28;20104;-76
2021/11/06 09:52:12;;;;;;;15.27;9.15;;;7.90;99.90;;;;;;5003639;28;20045;-76
2021/11/06 09:54:42;;;;;;;13.68;8.13;;;7.90;99.90;;;;;;5023241;28;20047;-75
2021/11/06 09:57:11;;;;;;;14.82;8.95;;;7.90;99.90;;;;;;5013058;28;20041;-76
2021/11/06 09:59:39;;;;;;;13.95;8.75;;;7.90;99.90;;;;;;5030522;28;20033;-76
2021/11/06 10:02:08;;;;;;;13.35;8.40;;;7.90;99.90;;;;;;4996109;28;20052;-76
2021/11/06 10:04:36;;;;;;;16.60;9.52;;;7.90;99.90;;;;;;5040029;28;20059;-74
2021/11/06 10:07:19;;;;;;;13.10;9.70;;;7.90;99.90;;;;;;5006302;28;20053;-75
2021/11/06 10:09:58;;;;;;;12.98;9.05;;;8.00;99.90;;;;;;5022693;28;20552;-75
2021/11/06 10:12:26;;;;;;;12.05;8.25;;;8.00;99.90;;;;;;5010738;28;20045;-76
2021/11/06 10:15:22;;;;;;;14.73;8.60;;;7.90;99.90;;;;;;5040064;28;20090;-76
2021/11/06 10:17:54;;;;;;;11.73;8.43;;;7.90;99.90;;;;;;5030011;28;20056;-76
2021/11/06 10:20:31;;;;;;;15.85;9.25;;;7.90;99.90;;;;;;5025499;28;20041;-76
2021/11/06 10:23:05;;;;;;;15.13;9.55;;;8.00;99.90;;;;;;5025514;28;20071;-78
2021/11/06 10:25:37;;;;;;;15.82;9.82;;;8.00;99.90;;;;;;5025125;28;20219;-76
2021/11/06 10:28:12;;;;;;;13.85;9.27;;;8.00;99.90;;;;;;5025466;28;20045;-76
2021/11/06 10:30:47;;;;;;;16.55;10.77;;;8.00;99.90;;;;;;5016994;28;20044;-75
2021/11/06 10:33:19;;;;;;;16.10;9.65;;;8.00;99.90;;;;;;5024948;28;20627;-76
2021/11/06 10:36:15;;;;;;;16.00;9.32;;;8.10;99.90;;;;;;5021481;28;20069;-77
2021/11/06 10:38:57;;;;;;;18.00;9.23;;;8.10;99.90;;;;;;5006508;28;20045;-76
2021/11/06 10:41:34;;;;;;;18.00;9.75;;;8.10;99.90;;;;;;5033326;28;20049;-76
2021/11/06 10:44:04;;;;;;;12.75;8.85;;;8.20;99.90;;;;;;5010747;28;20091;-76
2021/11/06 10:49:47;;;;;;;20.33;12.10;;;8.20;99.90;;;;;;5056783;28;20053;-77
2021/11/06 10:52:22;;;;;;;14.27;10.45;;;8.30;99.90;;;;;;5032947;28;20400;-78
2021/11/06 10:55:09;;;;;;;17.98;10.18;;;8.30;99.90;;;;;;5007889;28;20049;-77
2021/11/06 10:57:46;;;;;;;11.55;8.52;;;8.40;99.90;;;;;;5022824;28;20064;-77
2021/11/06 11:00:20;;;;;;;15.85;9.52;;;8.50;99.90;;;;;;5011160;28;20075;-78
2021/11/06 11:02:48;;;;;;;15.38;8.55;;;8.50;99.90;;;;;;5028668;28;20044;-78
2021/11/06 11:05:36;;;;;;;14.82;7.95;;;8.50;99.90;;;;;;5009051;28;20095;-77
2021/11/06 11:08:20;;;;;;;15.50;8.52;;;8.60;99.90;;;;;;5024202;28;20049;-77
2021/11/06 11:10:56;;;;;;;12.43;8.35;;;8.70;99.90;;;;;;5006838;28;20130;-78
2021/11/06 11:13:30;;;;;;;14.98;7.85;;;8.70;99.90;;;;;;5052526;28;20063;-77
2021/11/06 11:16:14;;;;;;;11.77;8.13;;;8.90;99.90;;;;;;5009957;28;20087;-77
2021/11/06 11:18:48;;;;;;;14.93;8.87;;;9.10;99.90;;;;;;5025960;28;20099;-77
2021/11/06 11:21:27;;;;;;;16.67;9.07;;;9.20;99.90;;;;;;5025445;28;20291;-77
2021/11/06 11:24:15;;;;;;;18.20;9.02;;;9.20;99.90;;;;;;5045354;28;20079;-76
2021/11/06 11:27:47;;;;;;;13.18;8.80;;;9.20;99.90;;;;;;5042639;28;20041;-76
2021/11/06 11:30:14;;;;;;;13.90;9.07;;;9.40;99.90;;;;;;5026231;28;20033;-76
2021/11/06 11:32:45;;;;;;;10.95;8.30;;;9.60;99.90;;;;;;5026530;28;20057;-75
2021/11/06 11:35:13;;;;;;;14.05;7.95;;;9.60;99.90;;;;;;5005213;28;20052;-76
2021/11/06 11:37:43;;;;;;;11.68;8.13;;;9.80;99.90;;;;;;5024784;28;20284;-76
2021/11/06 11:40:14;;;;;;;11.75;7.95;;;9.90;99.90;;;;;;5027888;28;20107;-77
2021/11/06 11:43:10;;;;;;;11.95;7.80;;;10.00;99.90;;;;;;5030795;28;20488;-77
2021/11/06 11:46:00;;;;;;;11.55;7.95;;;10.00;99.90;;;;;;5014050;28;20060;-76
2021/11/06 11:48:33;;;;;;;11.65;8.38;;;10.00;99.90;;;;;;5047750;28;20053;-77
2021/11/06 11:51:03;;;;;;;13.75;8.68;;;10.00;99.90;;;;;;5014180;28;20055;-77
2021/11/06 11:53:34;;;;;;;8.85;7.95;;;10.10;99.90;;;;;;5028119;28;20056;-77
2021/11/06 11:56:17;;;;;;;10.55;6.68;;;10.00;99.90;;;;;;5041627;28;20052;-76
2021/11/06 11:58:45;;;;;;;6.90;6.28;;;10.10;99.90;;;;;;5026143;28;20071;-77
2021/11/06 12:01:24;;;;;;;12.40;8.13;;;9.90;99.90;;;;;;5048364;28;20048;-76
2021/11/06 12:04:15;;;;;;;12.00;8.07;;;9.90;99.90;;;;;;5026243;28;20049;-78
2021/11/06 12:06:45;;;;;;;7.47;6.70;;;10.00;99.90;;;;;;5020754;28;20049;-76
2021/11/06 12:09:15;;;;;;;7.30;6.60;;;10.00;99.90;;;;;;5020651;28;20095;-77
2021/11/06 12:11:56;;;;;;;7.28;6.50;;;10.00;99.90;;;;;;5017729;28;20049;-75
2021/11/06 12:14:34;;;;;;;6.22;5.68;;;9.80;99.90;;;;;;5008329;28;20124;-77
2021/11/06 12:17:13;;;;;;;7.10;6.60;;;9.70;99.90;;;;;;5026001;28;20578;-76
2021/11/06 12:19:45;;;;;;;8.80;7.00;;;9.60;99.90;;;;;;4992649;28;20038;-75
2021/11/06 12:22:23;;;;;;;8.63;7.47;;;9.70;99.90;;;;;;5008915;28;20045;-76
2021/11/06 12:25:15;;;;;;;7.20;6.47;;;9.80;99.90;;;;;;5010371;28;20115;-76
2021/11/06 12:27:52;;;;;;;6.72;6.05;;;9.80;99.90;;;;;;5021787;28;20041;-76
2021/11/06 12:30:35;;;;;;;8.07;6.43;;;9.80;99.90;;;;;;5010443;28;20045;-76
2021/11/06 12:33:06;;;;;;;8.02;6.97;;;9.90;99.90;;;;;;5026098;28;20048;-76
2021/11/06 12:35:43;;;;;;;7.95;7.18;;;10.00;99.90;;;;;;5008521;28;20037;-75
2021/11/06 12:38:11;;;;;;;8.98;6.93;;;10.10;99.90;;;;;;5008958;28;20577;-78
2021/11/06 12:40:59;;;;;;;7.57;6.85;;;10.20;99.90;;;;;;5022864;28;20052;-76
2021/11/06 12:43:29;;;;;;;8.02;7.18;;;10.40;99.90;;;;;;4983409;28;20117;-76
2021/11/06 12:46:13;;;;;;;6.72;6.28;;;10.50;99.90;;;;;;5004900;28;20064;-75
2021/11/06 12:48:45;;;;;;;7.45;6.70;;;10.40;99.90;;;;;;5018406;28;20044;-76
2021/11/06 12:51:18;;;;;;;6.93;6.43;;;10.30;99.90;;;;;;5025023;28;20048;-76
2021/11/06 12:53:52;;;;;;;7.50;6.75;;;10.30;99.90;;;;;;5021379;28;20037;-75
2021/11/06 12:56:24;;;;;;;8.18;7.50;;;10.30;99.90;;;;;;5023103;28;20045;-75
2021/11/06 12:59:07;;;;;;;7.07;6.40;;;10.40;99.90;;;;;;5009596;28;20047;-76
2021/11/06 13:01:38;;;;;;;7.53;6.88;;;10.40;99.90;;;;;;5039590;28;20065;-77
2021/11/06 13:04:14;;;;;;;6.43;6.03;;;10.20;99.90;;;;;;5023572;28;20055;-76
2021/11/06 13:06:44;;;;;;;7.72;6.60;;;10.10;99.90;;;;;;5022622;28;20131;-76
2021/11/06 13:09:35;;;;;;;7.30;6.70;;;10.10;99.90;;;;;;5006903;28;20041;-75